首页
METAR-TAF:

METAR-TAF

机场 :

Büchel, 德国

纬度: 50-10N, 经度: 007-04E, 海拔: 478米

当前天气观测

该预报发布于30分钟前的10:20 UTC
风速7节,风向
温度 16°C
湿度 45%
气压 1034 hPa
能见度10公里或以上
少量云层高于4000英尺
多云层高于22000英尺

METAR: ETSB 261020Z 36007KT 9999 FEW040 BKN220 16/04 Q1034 BLU+BLU+

时间: 12:50 (10:50 UTC)

预报

该预报发布于22分钟前的10:28 UTC
预报有效从26日的 11点(UTC)到 26日的 20点(UTC)
风速8节,风向北转东北
能见度10公里或以上
少量云层高于4000英尺

TAF: ETSB 261028Z 2611/2620 03008KT 9999 NSW FEW040 BY ETGL

超过4000个机场的气象观测和天气预报(METAR&TAF报告)。

可查询的气象台以黄色和红色小点在地图上表示。

将鼠标移到小点上方,可查看气象台名称。

然后点击查看天气观测和预报。

如需切换地图:点击带黑十字的绿色按钮放大地图;点击带横线的绿色按钮缩小地图;或者点击绿色箭头查看邻近地区的地图。


METAR-TAF: